createdAt,value
2023-05-14T00:00:18.326Z,101845.84
2023-05-14T00:02:47.836Z,101803.41
2023-05-14T00:05:16.162Z,101832.56
2023-05-14T00:07:44.249Z,101833.44
2023-05-14T00:10:12.455Z,101827.19
2023-05-14T00:12:40.482Z,101822.50
2023-05-14T00:15:09.904Z,101828.91
2023-05-14T00:17:39.134Z,101830.84
2023-05-14T00:20:09.571Z,101820.13
2023-05-14T00:22:38.417Z,101825.50
2023-05-14T00:25:07.854Z,101804.03
2023-05-14T00:27:36.203Z,101811.09
2023-05-14T00:30:05.618Z,101809.41
2023-05-14T00:32:34.805Z,101809.41
2023-05-14T00:35:04.525Z,101811.09
2023-05-14T00:37:34.024Z,101808.44
2023-05-14T00:40:02.075Z,101730.06
2023-05-14T00:42:30.175Z,101794.00
2023-05-14T00:44:58.248Z,101769.88
2023-05-14T00:47:26.559Z,101807.56
2023-05-14T00:49:54.813Z,101804.88
2023-05-14T00:52:23.074Z,101719.22
2023-05-14T00:54:53.252Z,101804.03
2023-05-14T00:57:21.725Z,101804.03
2023-05-14T00:59:49.930Z,101763.66
2023-05-14T01:02:18.062Z,101798.69
2023-05-14T01:04:46.307Z,101793.31
2023-05-14T01:07:21.983Z,101757.34
2023-05-14T01:09:55.712Z,101776.38
2023-05-14T01:12:31.187Z,101795.25
2023-05-14T01:15:06.610Z,101721.13
2023-05-14T01:17:36.622Z,101682.81
2023-05-14T01:20:05.963Z,101601.53
2023-05-14T01:22:35.421Z,101786.22
2023-05-14T01:25:05.613Z,101793.31
2023-05-14T01:27:40.074Z,101791.59
2023-05-14T01:30:20.793Z,101791.59
2023-05-14T01:32:53.011Z,101752.59
2023-05-14T01:35:23.854Z,101785.38
2023-05-14T01:37:54.890Z,101783.53
2023-05-14T01:40:24.201Z,101780.84
2023-05-14T01:42:54.112Z,101716.97
2023-05-14T01:45:24.489Z,101785.28
2023-05-14T01:47:52.718Z,101780.84
2023-05-14T01:50:21.441Z,101695.22
2023-05-14T01:52:51.278Z,101775.50
2023-05-14T01:55:20.986Z,101618.00
2023-05-14T01:57:49.203Z,101778.16
2023-05-14T02:00:17.600Z,101779.03
2023-05-14T02:02:45.736Z,101775.50
2023-05-14T02:05:14.967Z,101776.34
2023-05-14T02:07:43.059Z,101660.75
2023-05-14T02:10:11.961Z,101771.88
2023-05-14T02:12:41.661Z,101751.75
2023-05-14T02:15:11.198Z,101770.13
2023-05-14T02:17:39.703Z,101771.00
2023-05-14T02:20:10.417Z,101771.88
2023-05-14T02:22:42.257Z,101768.31
2023-05-14T02:25:11.528Z,101785.28
2023-05-14T02:27:39.617Z,101780.84
2023-05-14T02:30:13.702Z,101586.94
2023-05-14T02:32:41.970Z,101771.00
2023-05-14T02:35:10.942Z,101766.50
2023-05-14T02:37:38.974Z,101684.50
2023-05-14T02:40:08.366Z,101762.09
2023-05-14T02:42:36.963Z,101767.44
2023-05-14T02:45:05.637Z,101688.56
2023-05-14T02:47:37.759Z,101747.44
2023-05-14T02:50:07.460Z,101755.78
2023-05-14T02:52:36.701Z,101573.78
2023-05-14T02:55:05.063Z,101761.13
2023-05-14T02:57:33.097Z,101749.53
2023-05-14T03:00:01.311Z,101748.69
2023-05-14T03:02:30.074Z,101751.34
2023-05-14T03:04:59.981Z,101748.69
2023-05-14T03:07:28.037Z,101748.06
2023-05-14T03:09:56.657Z,101748.69
2023-05-14T03:12:24.773Z,101742.06
2023-05-14T03:14:52.967Z,101675.47
2023-05-14T03:17:21.076Z,101746.97
2023-05-14T03:19:49.145Z,101748.69
2023-05-14T03:22:18.649Z,101744.19
2023-05-14T03:24:46.738Z,101663.06
2023-05-14T03:27:14.749Z,101749.44
2023-05-14T03:29:42.802Z,101750.41
2023-05-14T03:32:10.827Z,101744.06
2023-05-14T03:34:38.985Z,101744.19
2023-05-14T03:37:07.045Z,101745.03
2023-05-14T03:39:36.660Z,101732.59
2023-05-14T03:42:05.253Z,101654.81
2023-05-14T03:44:33.366Z,101739.69
2023-05-14T03:47:01.453Z,101687.22
2023-05-14T03:49:30.442Z,101724.03
2023-05-14T03:51:59.680Z,101724.03
2023-05-14T03:54:27.916Z,101733.44
2023-05-14T03:56:58.489Z,101727.22
2023-05-14T03:59:26.833Z,101725.53
2023-05-14T04:01:55.284Z,101716.50
2023-05-14T04:04:23.494Z,101721.88
2023-05-14T04:06:51.702Z,101718.22
2023-05-14T04:09:19.799Z,101719.06
2023-05-14T04:11:47.869Z,101702.13
2023-05-14T04:14:17.336Z,101696.78
2023-05-14T04:16:45.518Z,101710.69
2023-05-14T04:19:14.086Z,101708.09
2023-05-14T04:21:42.233Z,101700.94
2023-05-14T04:24:10.772Z,101698.25
2023-05-14T04:26:38.997Z,101683.06
2023-05-14T04:29:07.305Z,101616.09
2023-05-14T04:31:37.471Z,101694.81
2023-05-14T04:34:05.591Z,101694.81
2023-05-14T04:36:33.746Z,101689.69
2023-05-14T04:39:01.871Z,101698.47
2023-05-14T04:41:30.021Z,101698.47
2023-05-14T04:43:58.268Z,101697.50
2023-05-14T04:46:26.713Z,101693.13
2023-05-14T04:48:56.518Z,101698.47
2023-05-14T04:51:25.067Z,101702.13
2023-05-14T04:53:53.333Z,101714.56
2023-05-14T04:56:21.653Z,101692.25
2023-05-14T04:58:49.791Z,101697.63
2023-05-14T05:01:18.142Z,101693.13
2023-05-14T05:03:46.321Z,101693.13
2023-05-14T05:06:16.172Z,101694.81
2023-05-14T05:08:44.255Z,101693.13
2023-05-14T05:11:12.633Z,101680.47
2023-05-14T05:13:40.702Z,101660.16
2023-05-14T05:16:09.620Z,101686.44
2023-05-14T05:18:37.774Z,101673.81
2023-05-14T05:21:05.956Z,101684.38
2023-05-14T05:23:35.515Z,101690.47
2023-05-14T05:26:03.845Z,101687.66
2023-05-14T05:28:32.142Z,101689.50
2023-05-14T05:31:00.387Z,101675.22
2023-05-14T05:33:28.598Z,101690.47
2023-05-14T05:35:56.884Z,101686.06
2023-05-14T05:38:25.037Z,101679.72
2023-05-14T05:40:55.847Z,101572.44
2023-05-14T05:43:23.970Z,101672.66
2023-05-14T05:45:52.016Z,101674.59
2023-05-14T05:48:20.184Z,101673.75
2023-05-14T05:50:49.552Z,101665.84
2023-05-14T05:53:17.734Z,101668.53
2023-05-14T05:55:45.894Z,101666.66
2023-05-14T05:58:17.339Z,101674.84
2023-05-14T06:00:45.840Z,101645.53
2023-05-14T06:03:14.714Z,101673.13
2023-05-14T06:05:44.581Z,101674.00
2023-05-14T06:08:12.739Z,101662.16
2023-05-14T06:10:40.917Z,101656.81
2023-05-14T06:13:09.038Z,101651.44
2023-05-14T06:15:38.495Z,101653.16
2023-05-14T06:18:06.756Z,101646.31
2023-05-14T06:20:35.741Z,101592.03
2023-05-14T06:23:03.854Z,101571.28
2023-05-14T06:25:31.944Z,101656.56
2023-05-14T06:28:00.053Z,101660.25
2023-05-14T06:30:28.207Z,101651.31
2023-05-14T06:32:57.726Z,101669.22
2023-05-14T06:35:26.075Z,101654.13
2023-05-14T06:37:54.203Z,101663.03
2023-05-14T06:40:24.811Z,101634.06
2023-05-14T06:42:53.164Z,101676.34
2023-05-14T06:45:21.216Z,101672.78
2023-05-14T06:47:49.355Z,101669.22
2023-05-14T06:50:19.447Z,101592.03
2023-05-14T06:52:47.586Z,101672.66
2023-05-14T06:55:15.643Z,101667.31
2023-05-14T06:57:44.222Z,101673.53
2023-05-14T07:00:14.391Z,101669.22
2023-05-14T07:02:42.517Z,101663.75
2023-05-14T07:05:11.509Z,101669.00
2023-05-14T07:07:41.379Z,101654.88
2023-05-14T07:10:09.842Z,101662.06
2023-05-14T07:12:37.982Z,101646.09
2023-05-14T07:15:07.200Z,101629.34
2023-05-14T07:17:35.372Z,101658.75
2023-05-14T07:20:03.795Z,101658.75
2023-05-14T07:22:31.867Z,101649.34
2023-05-14T07:25:01.451Z,101658.75
2023-05-14T07:27:29.550Z,101673.13
2023-05-14T07:29:57.616Z,101666.06
2023-05-14T07:32:26.158Z,101673.13
2023-05-14T07:34:54.318Z,101660.72
2023-05-14T07:37:24.145Z,101658.38
2023-05-14T07:39:52.371Z,101673.13
2023-05-14T07:42:34.507Z,101676.78
2023-05-14T07:45:03.872Z,101669.72
2023-05-14T07:47:32.179Z,101645.13
2023-05-14T07:50:00.698Z,101679.81
2023-05-14T07:52:28.923Z,101673.38
2023-05-14T07:54:57.055Z,101683.84
2023-05-14T07:57:26.555Z,101678.50
2023-05-14T07:59:54.627Z,101690.91
2023-05-14T08:02:23.229Z,101685.56
2023-05-14T08:04:51.410Z,101653.38
2023-05-14T08:07:19.466Z,101643.50
2023-05-14T08:09:47.588Z,101646.31
2023-05-14T08:12:16.154Z,101650.84
2023-05-14T08:14:46.143Z,101648.28
2023-05-14T08:17:14.346Z,101574.69
2023-05-14T08:19:42.484Z,101637.56
2023-05-14T08:22:10.568Z,101636.69
2023-05-14T08:24:38.859Z,101625.09
2023-05-14T08:27:08.006Z,101493.91
2023-05-14T08:29:36.147Z,101617.06
2023-05-14T08:32:19.329Z,101614.38
2023-05-14T08:34:51.929Z,101608.16
2023-05-14T08:37:20.413Z,101612.66
2023-05-14T08:39:48.540Z,101612.56
2023-05-14T08:42:21.016Z,101621.47
2023-05-14T08:44:51.087Z,101614.38
2023-05-14T08:47:23.268Z,101611.69
2023-05-14T08:49:56.210Z,101605.59
2023-05-14T08:52:24.401Z,101604.09
2023-05-14T08:54:54.891Z,101614.38
2023-05-14T08:57:24.942Z,101612.66
2023-05-14T08:59:53.324Z,101609.00
2023-05-14T09:02:26.321Z,101616.09
2023-05-14T09:04:57.510Z,101610.75
2023-05-14T09:07:25.670Z,101610.09
2023-05-14T09:09:54.734Z,101548.38
2023-05-14T09:12:23.490Z,101496.28
2023-05-14T09:14:52.458Z,101609.88
2023-05-14T09:17:21.183Z,101616.09
2023-05-14T09:19:53.177Z,101608.63
2023-05-14T09:22:22.403Z,101543.25
2023-05-14T09:25:04.727Z,101444.84
2023-05-14T09:27:33.850Z,101623.16
2023-05-14T09:30:10.427Z,101623.16
2023-05-14T09:32:40.260Z,101609.00
2023-05-14T09:35:18.442Z,101619.50
2023-05-14T09:37:47.820Z,101612.44
2023-05-14T09:40:17.448Z,101483.97
2023-05-14T09:42:45.867Z,101610.75
2023-05-14T09:45:14.061Z,101572.88
2023-05-14T09:47:42.527Z,101607.06
2023-05-14T09:50:11.025Z,101608.78
2023-05-14T09:52:40.557Z,101598.03
2023-05-14T09:55:09.303Z,101599.88
2023-05-14T09:57:37.479Z,101603.41
2023-05-14T10:00:06.839Z,101603.41
2023-05-14T10:02:38.903Z,101577.28
2023-05-14T10:05:08.213Z,101432.09
2023-05-14T10:07:41.726Z,101592.69
2023-05-14T10:10:14.788Z,101487.44
2023-05-14T10:12:44.872Z,101582.06
2023-05-14T10:15:18.878Z,101566.34
2023-05-14T10:17:51.940Z,101575.88
2023-05-14T10:20:21.748Z,101578.56
2023-05-14T10:22:52.351Z,101565.16
2023-05-14T10:25:20.830Z,101562.47
2023-05-14T10:27:49.203Z,101563.41
2023-05-14T10:30:17.823Z,101557.09
2023-05-14T10:32:46.368Z,101554.41
2023-05-14T10:35:20.383Z,101567.84
2023-05-14T10:37:48.816Z,101550.75
2023-05-14T10:40:19.291Z,101532.94
2023-05-14T10:42:48.349Z,101544.41
2023-05-14T10:45:17.270Z,101537.34
2023-05-14T10:47:47.423Z,101540.03
2023-05-14T10:50:17.701Z,101537.34
2023-05-14T10:52:46.852Z,101545.28
2023-05-14T10:55:17.956Z,101533.69
2023-05-14T10:57:47.878Z,101471.78
2023-05-14T11:00:17.137Z,101465.56
2023-05-14T11:02:46.093Z,101537.34
2023-05-14T11:05:16.998Z,101537.34
2023-05-14T11:07:47.057Z,101522.47
2023-05-14T11:10:18.227Z,101368.94
2023-05-14T11:12:48.021Z,101531.88
2023-05-14T11:15:18.836Z,101520.28
2023-05-14T11:17:48.365Z,101428.28
2023-05-14T11:20:17.360Z,101346.44
2023-05-14T11:22:47.381Z,101501.50
2023-05-14T11:25:18.451Z,101501.50
2023-05-14T11:27:47.924Z,101501.50
2023-05-14T11:30:17.286Z,101499.69
2023-05-14T11:32:46.919Z,101496.13
2023-05-14T11:35:15.742Z,101490.78
2023-05-14T11:37:44.041Z,101496.13
2023-05-14T11:40:17.721Z,101494.44
2023-05-14T11:42:46.258Z,101484.81
2023-05-14T11:45:14.880Z,101295.81
2023-05-14T11:47:43.440Z,101476.66
2023-05-14T11:50:12.114Z,101463.38
2023-05-14T11:52:41.674Z,101471.28
2023-05-14T11:55:12.905Z,101465.94
2023-05-14T11:57:42.609Z,101486.41
2023-05-14T12:00:13.616Z,101478.34
2023-05-14T12:02:41.813Z,101473.00
2023-05-14T12:05:13.804Z,101478.34
2023-05-14T12:07:42.340Z,101473.00
2023-05-14T12:10:13.131Z,101461.41
2023-05-14T12:12:46.790Z,101467.63
2023-05-14T12:15:16.496Z,101466.75
2023-05-14T12:17:50.517Z,101460.56
2023-05-14T12:20:19.167Z,101463.97
2023-05-14T12:22:47.294Z,101460.56
2023-05-14T12:25:15.445Z,101457.13
2023-05-14T12:27:46.153Z,101461.41
2023-05-14T12:32:46.200Z,101489.09
2023-05-14T12:35:14.318Z,101490.78
2023-05-14T12:37:43.133Z,101480.06
2023-05-14T12:40:11.840Z,101481.03
2023-05-14T12:42:40.000Z,101490.78
2023-05-14T12:45:10.209Z,101466.16
2023-05-14T12:47:38.587Z,101473.84
2023-05-14T12:50:07.772Z,101477.38
2023-05-14T12:52:39.437Z,101462.25
2023-05-14T12:55:09.380Z,101463.97
2023-05-14T12:57:39.102Z,101456.91
2023-05-14T13:00:13.954Z,101440.81
2023-05-14T13:02:43.873Z,101442.50
2023-05-14T13:05:12.880Z,101460.28
2023-05-14T13:07:41.174Z,101454.94
2023-05-14T13:10:10.268Z,101445.06
2023-05-14T13:12:38.734Z,101450.44
2023-05-14T13:15:07.633Z,101437.16
2023-05-14T13:17:37.218Z,101438.59
2023-05-14T13:20:06.213Z,101363.72
2023-05-14T13:22:34.281Z,101429.84
2023-05-14T13:25:02.325Z,101424.97
2023-05-14T13:27:30.524Z,101437.03
2023-05-14T13:29:59.055Z,101435.22
2023-05-14T13:32:27.336Z,101435.19
2023-05-14T13:34:56.882Z,101428.13
2023-05-14T13:37:26.479Z,101435.22
2023-05-14T13:39:54.502Z,101438.84
2023-05-14T13:42:23.730Z,101267.72
2023-05-14T13:44:51.738Z,101440.56
2023-05-14T13:47:19.801Z,101341.56
2023-05-14T13:49:47.842Z,101442.25
2023-05-14T13:52:17.354Z,101440.56
2023-05-14T13:54:45.425Z,101447.63
2023-05-14T13:57:13.509Z,101368.84
2023-05-14T13:59:41.691Z,101424.47
2023-05-14T14:02:10.238Z,101423.97
2023-05-14T14:04:38.259Z,101435.22
2023-05-14T14:07:06.395Z,101399.59
2023-05-14T14:09:36.961Z,101436.03
2023-05-14T14:12:05.628Z,101429.09
2023-05-14T14:14:33.715Z,101291.25
2023-05-14T14:17:01.705Z,101434.97
2023-05-14T14:19:30.117Z,101435.78
2023-05-14T14:21:58.211Z,101425.94
2023-05-14T14:24:26.247Z,101439.34
2023-05-14T14:26:55.640Z,101424.22
2023-05-14T14:29:24.047Z,101418.88
2023-05-14T14:31:52.232Z,101408.16
2023-05-14T14:34:20.319Z,101413.50
2023-05-14T14:36:48.337Z,101410.09
2023-05-14T14:39:16.584Z,101417.16
2023-05-14T14:41:44.777Z,101416.31
2023-05-14T14:44:14.266Z,101414.47
2023-05-14T14:46:43.569Z,101404.72
2023-05-14T14:49:11.704Z,101410.09
2023-05-14T14:51:39.787Z,101398.38
2023-05-14T14:54:07.857Z,101390.72
2023-05-14T14:56:35.962Z,101400.34
2023-05-14T14:59:04.117Z,101399.34
2023-05-14T15:01:34.004Z,101386.06
2023-05-14T15:04:02.071Z,101388.88
2023-05-14T15:06:30.199Z,101378.16
2023-05-14T15:08:59.021Z,101383.28
2023-05-14T15:11:27.229Z,101375.34
2023-05-14T15:13:55.319Z,101360.25
2023-05-14T15:16:23.416Z,101376.22
2023-05-14T15:18:52.989Z,101369.97
2023-05-14T15:21:21.193Z,101370.84
2023-05-14T15:23:49.270Z,101367.19
2023-05-14T15:26:17.339Z,101356.44
2023-05-14T15:28:45.454Z,101356.44
2023-05-14T15:31:13.746Z,101351.09
2023-05-14T15:33:42.604Z,101351.09
2023-05-14T15:36:12.810Z,101341.34
2023-05-14T15:38:40.955Z,101340.38
2023-05-14T15:41:09.089Z,101343.16
2023-05-14T15:43:37.098Z,101339.63
2023-05-14T15:46:05.187Z,101331.56
2023-05-14T15:48:33.247Z,101334.25
2023-05-14T15:51:01.350Z,101334.25
2023-05-14T15:53:30.856Z,101330.63
2023-05-14T15:55:58.914Z,101324.28
2023-05-14T15:58:27.821Z,101124.13
2023-05-14T16:00:56.144Z,101326.81
2023-05-14T16:03:24.246Z,101316.09
2023-05-14T16:05:52.456Z,101312.44
2023-05-14T16:08:20.571Z,101306.25
2023-05-14T16:10:49.967Z,101306.25
2023-05-14T16:13:18.039Z,101299.16
2023-05-14T16:15:46.204Z,101292.09
2023-05-14T16:18:14.406Z,101297.69
2023-05-14T16:20:42.581Z,101276.00
2023-05-14T16:23:10.603Z,101281.38
2023-05-14T16:25:39.382Z,101274.19
2023-05-14T16:28:08.919Z,101267.81
2023-05-14T16:30:36.946Z,101250.88
2023-05-14T16:33:05.156Z,101250.88
2023-05-14T16:35:33.257Z,101251.75
2023-05-14T16:38:01.754Z,101248.19
2023-05-14T16:40:30.317Z,101249.19
2023-05-14T16:42:58.413Z,101239.31
2023-05-14T16:45:27.959Z,101218.00
2023-05-14T16:47:55.988Z,101235.78
2023-05-14T16:50:24.093Z,101238.47
2023-05-14T16:52:52.177Z,101227.72
2023-05-14T16:55:20.709Z,101233.09
2023-05-14T16:57:48.832Z,101228.59
2023-05-14T17:00:18.103Z,101227.59
2023-05-14T17:02:49.227Z,101207.28
2023-05-14T17:05:17.768Z,101218.44
2023-05-14T17:07:45.842Z,101211.38
2023-05-14T17:10:13.906Z,101213.34
2023-05-14T17:12:41.967Z,101220.44
2023-05-14T17:15:11.045Z,101215.88
2023-05-14T17:17:39.872Z,101215.88
2023-05-14T17:20:10.625Z,101218.69
2023-05-14T17:22:38.863Z,101210.66
2023-05-14T17:25:09.592Z,101213.34
2023-05-14T17:27:37.712Z,101213.34
2023-05-14T17:30:06.888Z,101209.69
2023-05-14T17:32:35.100Z,101213.34
2023-05-14T17:35:03.223Z,101206.28
2023-05-14T17:37:32.792Z,101206.28
2023-05-14T17:40:00.843Z,101202.59
2023-05-14T17:42:29.023Z,101207.97
2023-05-14T17:44:57.186Z,101205.28
2023-05-14T17:47:25.363Z,101202.59
2023-05-14T17:49:53.479Z,101200.91
2023-05-14T17:52:21.565Z,101208.84
2023-05-14T17:54:51.033Z,101207.44
2023-05-14T17:57:19.138Z,101208.88
2023-05-14T17:59:47.206Z,101213.03
2023-05-14T18:02:15.228Z,101207.41
2023-05-14T18:04:43.302Z,101207.13
2023-05-14T18:07:11.416Z,101208.84
2023-05-14T18:09:39.476Z,101203.72
2023-05-14T18:12:10.164Z,101218.38
2023-05-14T18:14:38.250Z,101209.59
2023-05-14T18:17:06.864Z,101205.34
2023-05-14T18:19:35.032Z,101206.44
2023-05-14T18:22:03.106Z,101103.94
2023-05-14T18:24:31.207Z,101210.38
2023-05-14T18:26:59.368Z,101211.94
2023-05-14T18:29:28.854Z,101214.63
2023-05-14T18:31:56.912Z,101215.00
2023-05-14T18:34:25.060Z,101225.47
2023-05-14T18:36:53.197Z,101215.72
2023-05-14T18:39:21.515Z,101215.72
2023-05-14T18:41:49.661Z,101219.41
2023-05-14T18:44:17.753Z,101208.06
2023-05-14T18:46:47.366Z,101219.66
2023-05-14T18:49:15.524Z,101210.63
2023-05-14T18:51:43.547Z,101219.66
2023-05-14T18:54:11.607Z,101216.00
2023-05-14T18:56:41.306Z,101209.19
2023-05-14T18:59:09.336Z,101216.97
2023-05-14T19:01:37.523Z,101214.31
2023-05-14T19:04:07.515Z,101215.13
2023-05-14T19:06:36.423Z,101217.81
2023-05-14T19:09:04.796Z,101209.88
2023-05-14T19:11:32.858Z,101216.97
2023-05-14T19:14:00.976Z,101214.31
2023-05-14T19:16:29.315Z,101217.94
2023-05-14T19:18:57.512Z,101209.88
2023-05-14T19:21:29.241Z,101215.25
2023-05-14T19:23:57.359Z,101207.22
2023-05-14T19:26:25.506Z,101207.22
2023-05-14T19:28:58.416Z,101159.53
2023-05-14T19:31:26.646Z,101200.16
2023-05-14T19:33:55.206Z,101203.81
2023-05-14T19:36:23.370Z,101187.38
2023-05-14T19:38:52.810Z,101209.44
2023-05-14T19:41:21.717Z,101208.44
2023-05-14T19:43:49.913Z,101019.88
2023-05-14T19:46:18.117Z,101211.13
2023-05-14T19:48:46.376Z,101200.41
2023-05-14T19:51:14.476Z,101212.00
2023-05-14T19:53:42.595Z,101214.81
2023-05-14T19:56:12.107Z,101210.41
2023-05-14T19:58:40.182Z,101213.94
2023-05-14T20:01:08.450Z,101215.06
2023-05-14T20:03:36.610Z,101216.75
2023-05-14T20:06:05.076Z,101223.81
2023-05-14T20:08:33.419Z,101220.16
2023-05-14T20:11:01.599Z,101211.91
2023-05-14T20:13:32.248Z,101209.56
2023-05-14T20:16:00.968Z,101204.59
2023-05-14T20:18:29.154Z,101092.19
2023-05-14T20:20:57.366Z,101204.34
2023-05-14T20:23:25.445Z,101191.06
2023-05-14T20:25:53.593Z,101198.09
2023-05-14T20:28:21.684Z,101190.19
2023-05-14T20:30:51.228Z,101190.19
2023-05-14T20:33:19.398Z,101191.06
2023-05-14T20:35:47.473Z,101186.53
2023-05-14T20:38:17.386Z,101179.47
2023-05-14T20:40:45.633Z,101179.47
2023-05-14T20:43:13.834Z,101174.09
2023-05-14T20:45:41.886Z,101162.81
2023-05-14T20:48:15.122Z,101175.09
2023-05-14T20:50:43.222Z,101151.47
2023-05-14T20:53:11.260Z,101163.38
2023-05-14T20:55:39.504Z,101168.75
2023-05-14T20:58:07.671Z,101059.09
2023-05-14T21:00:35.755Z,101153.78
2023-05-14T21:03:04.260Z,101049.06
2023-05-14T21:05:33.923Z,100991.50
2023-05-14T21:08:02.019Z,101152.66
2023-05-14T21:10:30.142Z,101153.50
2023-05-14T21:12:58.204Z,101158.00
2023-05-14T21:15:27.352Z,101152.66
2023-05-14T21:17:55.683Z,101150.22
2023-05-14T21:20:23.722Z,101149.78
2023-05-14T21:22:53.112Z,101064.63
2023-05-14T21:25:21.176Z,101150.97
2023-05-14T21:27:49.202Z,101152.66
2023-05-14T21:30:17.398Z,101147.28
2023-05-14T21:32:45.599Z,101148.97
2023-05-14T21:35:13.659Z,101136.56
2023-05-14T21:37:41.993Z,101141.94
2023-05-14T21:40:12.666Z,101131.19
2023-05-14T21:42:41.071Z,101125.84
2023-05-14T21:45:09.910Z,101125.84
2023-05-14T21:47:38.664Z,101120.47
2023-05-14T21:50:07.618Z,101125.84
2023-05-14T21:52:35.817Z,101120.47
2023-05-14T21:55:03.857Z,101115.09
2023-05-14T21:57:34.494Z,101115.09
2023-05-14T22:00:04.698Z,100939.66
2023-05-14T22:02:33.905Z,101115.09
2023-05-14T22:05:02.153Z,101108.06
2023-05-14T22:07:30.209Z,101115.09
2023-05-14T22:09:58.233Z,101104.63
2023-05-14T22:12:26.343Z,101117.06
2023-05-14T22:14:55.769Z,101108.06
2023-05-14T22:17:23.779Z,101097.59
2023-05-14T22:19:51.884Z,101106.06
2023-05-14T22:22:19.891Z,101109.75
2023-05-14T22:24:47.894Z,101099.03
2023-05-14T22:27:15.942Z,101096.59
2023-05-14T22:29:43.990Z,101100.97
2023-05-14T22:32:13.438Z,101085.69
2023-05-14T22:34:41.573Z,101095.59
2023-05-14T22:37:10.056Z,101091.97
2023-05-14T22:39:38.104Z,101093.91
2023-05-14T22:42:06.970Z,101097.31
2023-05-14T22:44:35.517Z,101085.19
2023-05-14T22:47:03.607Z,101094.78
2023-05-14T22:49:33.196Z,101096.47
2023-05-14T22:52:01.437Z,101083.19
2023-05-14T22:54:29.474Z,101093.66
2023-05-14T22:56:57.482Z,101090.25
2023-05-14T22:59:25.497Z,101086.59
2023-05-14T23:01:53.599Z,101091.97
2023-05-14T23:04:22.169Z,101085.75
2023-05-14T23:06:51.735Z,101042.09
2023-05-14T23:09:20.097Z,101049.19
2023-05-14T23:11:48.116Z,101076.84
2023-05-14T23:14:18.042Z,101068.78
2023-05-14T23:16:46.274Z,101071.47
2023-05-14T23:19:14.450Z,101074.16
2023-05-14T23:21:42.569Z,101068.78
2023-05-14T23:24:12.034Z,101061.75
2023-05-14T23:26:40.319Z,101063.44
2023-05-14T23:29:08.340Z,101053.69
2023-05-14T23:31:36.835Z,101053.56
2023-05-14T23:34:04.945Z,101051.88
2023-05-14T23:36:33.572Z,101058.06
2023-05-14T23:39:01.724Z,101051.00
2023-05-14T23:41:31.700Z,101051.00
2023-05-14T23:43:59.902Z,101044.81
2023-05-14T23:46:28.300Z,101038.59
2023-05-14T23:48:57.190Z,101040.28
2023-05-14T23:51:25.338Z,101032.25
2023-05-14T23:53:58.276Z,101030.44
2023-05-14T23:56:27.483Z,101025.91
2023-05-14T23:58:57.260Z,101025.06
